Time,TemperatureF,DewpointF,PressureIn,WindDirection,WindDirectionDegrees,WindSpeedMPH,WindSpeedGustMPH,Humidity,HourlyPrecipIn,Conditions,Clouds,dailyrainin,SoftwareType,DateUTC
2013-02-03 00:05:00,46.6,42.0,30.20,ENE,60,0.0,2.0,84,0.00,,,0.00,weatherlink.com 1.10,2013-02-03 08:05:00,
2013-02-03 00:20:00,46.3,42.0,30.20,ENE,70,0.0,1.0,85,0.00,,,0.00,weatherlink.com 1.10,2013-02-03 08:20:00,
2013-02-03 00:35:00,46.4,42.0,30.20,ENE,72,0.0,2.0,85,0.00,,,0.00,weatherlink.com 1.10,2013-02-03 08:35:00,
2013-02-03 00:50:00,46.4,42.0,30.20,SE,142,0.0,2.0,85,0.00,,,0.00,weatherlink.com 1.10,2013-02-03 08:50:00,
2013-02-03 01:05:00,46.7,43.0,30.20,WNW,303,0.0,2.0,85,0.00,,,0.00,weatherlink.com 1.10,2013-02-03 09:05:00,
2013-02-03 01:20:00,46.5,42.0,30.19,South,184,0.0,3.0,85,0.00,,,0.00,weatherlink.com 1.10,2013-02-03 09:20:00,
2013-02-03 01:35:00,46.0,42.0,30.20,SE,138,0.0,2.0,85,0.00,,,0.00,weatherlink.com 1.10,2013-02-03 09:35:00,
2013-02-03 01:50:00,47.0,41.0,30.20,ENE,67,0.0,5.0,81,0.00,,,0.00,weatherlink.com 1.10,2013-02-03 09:50:00,
2013-02-03 02:05:00,47.2,41.0,30.20,SSE,155,0.0,4.0,80,0.00,,,0.00,weatherlink.com 1.10,2013-02-03 10:05:00,
2013-02-03 02:20:00,47.9,41.0,30.20,NNW,333,0.0,6.0,78,0.00,,,0.00,weatherlink.com 1.10,2013-02-03 10:20:00,
2013-02-03 02:35:00,48.0,41.0,30.19,NE,39,0.0,9.0,78,0.00,,,0.00,weatherlink.com 1.10,2013-02-03 10:35:00,
2013-02-03 02:50:00,47.0,41.0,30.20,ENE,60,0.0,1.0,79,0.00,,,0.00,weatherlink.com 1.10,2013-02-03 10:50:00,
2013-02-03 03:05:00,47.1,41.0,30.20,ENE,62,4.0,8.0,80,0.00,,,0.00,weatherlink.com 1.10,2013-02-03 11:05:00,
2013-02-03 03:20:00,46.5,41.0,30.19,ENE,63,1.0,3.0,81,0.00,,,0.00,weatherlink.com 1.10,2013-02-03 11:20:00,
2013-02-03 03:35:00,45.8,41.0,30.19,NW,326,0.0,1.0,83,0.00,,,0.00,weatherlink.com 1.10,2013-02-03 11:35:00,
2013-02-03 03:51:00,44.8,40.0,30.19,SSE,148,0.0,1.0,83,0.00,,,0.00,weatherlink.com 1.10,2013-02-03 11:51:00,
2013-02-03 04:06:00,43.0,40.0,30.19,SSE,148,0.0,0.0,88,0.00,,,0.00,weatherlink.com 1.10,2013-02-03 12:06:00,
2013-02-03 04:21:00,42.4,39.0,30.18,SSE,152,0.0,0.0,89,0.00,,,0.00,weatherlink.com 1.10,2013-02-03 12:21:00,
2013-02-03 04:36:00,42.4,40.0,30.18,ESE,120,0.0,1.0,90,0.00,,,0.00,weatherlink.com 1.10,2013-02-03 12:36:00,
2013-02-03 04:51:00,42.8,40.0,30.18,SSE,167,0.0,1.0,90,0.00,,,0.00,weatherlink.com 1.10,2013-02-03 12:51:00,
2013-02-03 05:06:00,42.9,40.0,30.18,WSW,237,0.0,1.0,90,0.00,,,0.00,weatherlink.com 1.10,2013-02-03 13:06:00,
2013-02-03 05:21:00,42.4,40.0,30.18,WSW,250,0.0,1.0,90,0.00,,,0.00,weatherlink.com 1.10,2013-02-03 13:21:00,
2013-02-03 05:36:00,41.8,39.0,30.18,WSW,248,0.0,0.0,91,0.00,,,0.00,weatherlink.com 1.10,2013-02-03 13:36:00,
2013-02-03 05:51:00,40.9,39.0,30.19,WSW,248,0.0,0.0,92,0.00,,,0.00,weatherlink.com 1.10,2013-02-03 13:51:00,
2013-02-03 06:06:00,40.5,39.0,30.19,WSW,248,0.0,0.0,93,0.00,,,0.00,weatherlink.com 1.10,2013-02-03 14:06:00,
2013-02-03 06:21:00,40.2,38.0,30.18,WSW,248,0.0,0.0,93,0.00,,,0.00,weatherlink.com 1.10,2013-02-03 14:21:00,
2013-02-03 06:36:00,39.3,38.0,30.19,WSW,248,0.0,0.0,93,0.00,,,0.00,weatherlink.com 1.10,2013-02-03 14:36:00,
2013-02-03 06:51:00,39.5,38.0,30.19,WSW,248,0.0,0.0,95,0.00,,,0.00,weatherlink.com 1.10,2013-02-03 14:51:00,
2013-02-03 07:06:00,40.0,39.0,30.20,WSW,248,0.0,0.0,95,0.00,,,0.00,weatherlink.com 1.10,2013-02-03 15:06:00,
2013-02-03 07:21:00,40.9,40.0,30.20,WSW,248,0.0,0.0,95,0.00,,,0.00,weatherlink.com 1.10,2013-02-03 15:21:00,
2013-02-03 07:36:00,41.7,40.0,30.20,WSW,248,0.0,0.0,95,0.00,,,0.00,weatherlink.com 1.10,2013-02-03 15:36:00,
2013-02-03 07:51:00,42.5,41.0,30.20,WSW,248,0.0,0.0,95,0.00,,,0.00,weatherlink.com 1.10,2013-02-03 15:51:00,
2013-02-03 08:06:00,43.5,42.0,30.20,WSW,248,0.0,0.0,94,0.00,,,0.00,weatherlink.com 1.10,2013-02-03 16:06:00,
2013-02-03 08:21:00,44.8,43.0,30.21,WSW,249,0.0,1.0,92,0.00,,,0.00,weatherlink.com 1.10,2013-02-03 16:21:00,
2013-02-03 08:36:00,45.9,44.0,30.21,WSW,249,0.0,0.0,91,0.00,,,0.00,weatherlink.com 1.10,2013-02-03 16:36:00,
2013-02-03 08:51:00,46.9,44.0,30.21,WSW,250,0.0,0.0,90,0.00,,,0.00,weatherlink.com 1.10,2013-02-03 16:51:00,
2013-02-03 09:06:00,48.0,45.0,30.21,WSW,249,0.0,0.0,88,0.00,,,0.00,weatherlink.com 1.10,2013-02-03 17:06:00,
2013-02-03 09:21:00,48.9,45.0,30.20,WSW,249,0.0,0.0,86,0.00,,,0.00,weatherlink.com 1.10,2013-02-03 17:21:00,
2013-02-03 09:36:00,49.7,45.0,30.21,WSW,249,0.0,0.0,84,0.00,,,0.00,weatherlink.com 1.10,2013-02-03 17:36:00,
2013-02-03 09:51:00,50.2,45.0,30.21,WSW,249,0.0,0.0,82,0.00,,,0.00,weatherlink.com 1.10,2013-02-03 17:51:00,
2013-02-03 10:06:00,50.7,45.0,30.22,WSW,250,0.0,1.0,82,0.00,,,0.00,weatherlink.com 1.10,2013-02-03 18:06:00,
2013-02-03 10:21:00,51.3,46.0,30.22,ENE,58,0.0,1.0,81,0.00,,,0.00,weatherlink.com 1.10,2013-02-03 18:21:00,
2013-02-03 10:36:00,52.1,46.0,30.21,ESE,115,0.0,1.0,81,0.00,,,0.00,weatherlink.com 1.10,2013-02-03 18:36:00,
2013-02-03 10:51:00,52.9,46.0,30.20,North,356,0.0,2.0,78,0.00,,,0.00,weatherlink.com 1.10,2013-02-03 18:51:00,
2013-02-03 11:07:00,54.0,47.0,30.19,NNW,348,0.0,3.0,78,0.00,,,0.00,weatherlink.com 1.10,2013-02-03 19:07:00,
2013-02-03 11:22:00,57.0,48.0,30.18,SSE,167,0.0,2.0,72,0.00,,,0.00,weatherlink.com 1.10,2013-02-03 19:22:00,
2013-02-03 11:37:00,57.4,47.0,30.18,South,184,0.0,2.0,69,0.00,,,0.00,weatherlink.com 1.10,2013-02-03 19:37:00,
2013-02-03 11:52:00,57.9,47.0,30.17,SSE,160,0.0,2.0,68,0.00,,,0.00,weatherlink.com 1.10,2013-02-03 19:52:00,
2013-02-03 12:07:00,58.6,47.0,30.17,SSE,154,0.0,3.0,66,0.00,,,0.00,weatherlink.com 1.10,2013-02-03 20:07:00,
2013-02-03 12:22:00,59.5,48.0,30.16,WSW,248,0.0,2.0,65,0.00,,,0.00,weatherlink.com 1.10,2013-02-03 20:22:00,
2013-02-03 12:37:00,59.7,48.0,30.16,NE,51,0.0,2.0,65,0.00,,,0.00,weatherlink.com 1.10,2013-02-03 20:37:00,
2013-02-03 12:52:00,60.3,48.0,30.16,ENE,58,0.0,2.0,64,0.00,,,0.00,weatherlink.com 1.10,2013-02-03 20:52:00,
2013-02-03 13:07:00,60.5,49.0,30.15,North,4,1.0,3.0,65,0.00,,,0.00,weatherlink.com 1.10,2013-02-03 21:07:00,
2013-02-03 13:22:00,61.7,49.0,30.15,NE,56,0.0,3.0,63,0.00,,,0.00,weatherlink.com 1.10,2013-02-03 21:22:00,
2013-02-03 13:37:00,62.6,49.0,30.13,SW,221,0.0,2.0,62,0.00,,,0.00,weatherlink.com 1.10,2013-02-03 21:37:00,
2013-02-03 13:52:00,63.3,49.0,30.13,West,262,1.0,2.0,59,0.00,,,0.00,weatherlink.com 1.10,2013-02-03 21:52:00,
2013-02-03 14:07:00,63.0,48.0,30.12,NE,39,1.0,1.0,58,0.00,,,0.00,weatherlink.com 1.10,2013-02-03 22:07:00,
2013-02-03 14:22:00,63.2,48.0,30.11,NE,34,0.0,3.0,59,0.00,,,0.00,weatherlink.com 1.10,2013-02-03 22:22:00,
2013-02-03 14:37:00,63.7,48.0,30.11,NE,41,0.0,4.0,58,0.00,,,0.00,weatherlink.com 1.10,2013-02-03 22:37:00,
2013-02-03 14:52:00,64.0,49.0,30.11,SSE,162,0.0,2.0,59,0.00,,,0.00,weatherlink.com 1.10,2013-02-03 22:52:00,
2013-02-03 15:07:00,63.1,49.0,30.11,SSE,159,0.0,3.0,60,0.00,,,0.00,weatherlink.com 1.10,2013-02-03 23:07:00,
2013-02-03 15:22:00,62.0,48.0,30.11,NNW,342,1.0,4.0,61,0.00,,,0.00,weatherlink.com 1.10,2013-02-03 23:22:00,
2013-02-03 15:37:00,61.0,48.0,30.11,NNE,23,1.0,4.0,63,0.00,,,0.00,weatherlink.com 1.10,2013-02-03 23:37:00,
2013-02-03 15:52:00,59.1,48.0,30.11,ENE,65,2.0,4.0,66,0.00,,,0.00,weatherlink.com 1.10,2013-02-03 23:52:00,
2013-02-03 16:07:00,57.9,47.0,30.10,South,178,0.0,4.0,68,0.00,,,0.00,weatherlink.com 1.10,2013-02-04 00:07:00,
2013-02-03 16:22:00,57.1,47.0,30.10,ENE,75,1.0,2.0,69,0.00,,,0.00,weatherlink.com 1.10,2013-02-04 00:22:00,
2013-02-03 16:37:00,56.6,46.0,30.10,North,1,2.0,3.0,69,0.00,,,0.00,weatherlink.com 1.10,2013-02-04 00:37:00,
2013-02-03 16:52:00,56.1,46.0,30.10,ESE,105,0.0,2.0,70,0.00,,,0.00,weatherlink.com 1.10,2013-02-04 00:52:00,
2013-02-03 17:07:00,55.2,46.0,30.11,ESE,122,0.0,1.0,72,0.00,,,0.00,weatherlink.com 1.10,2013-02-04 01:07:00,
2013-02-03 17:22:00,54.3,45.0,30.11,SSE,156,0.0,3.0,72,0.00,,,0.00,weatherlink.com 1.10,2013-02-04 01:22:00,
2013-02-03 17:37:00,53.3,45.0,30.11,ENE,70,0.0,1.0,74,0.00,,,0.00,weatherlink.com 1.10,2013-02-04 01:37:00,
2013-02-03 17:52:00,52.0,45.0,30.10,South,173,0.0,2.0,76,0.00,,,0.00,weatherlink.com 1.10,2013-02-04 01:52:00,
2013-02-03 18:07:00,51.3,44.0,30.10,NE,48,0.0,1.0,77,0.00,,,0.00,weatherlink.com 1.10,2013-02-04 02:07:00,
2013-02-03 18:22:00,50.2,44.0,30.11,NNE,27,0.0,1.0,79,0.00,,,0.00,weatherlink.com 1.10,2013-02-04 02:22:00,
2013-02-03 18:37:00,48.4,43.0,30.11,NW,320,0.0,0.0,82,0.00,,,0.00,weatherlink.com 1.10,2013-02-04 02:37:00,
2013-02-03 18:52:00,47.2,43.0,30.11,NW,320,0.0,0.0,84,0.00,,,0.00,weatherlink.com 1.10,2013-02-04 02:52:00,
2013-02-03 19:07:00,46.0,42.0,30.11,NW,320,0.0,0.0,86,0.00,,,0.00,weatherlink.com 1.10,2013-02-04 03:07:00,
2013-02-03 19:22:00,44.8,42.0,30.11,NW,320,0.0,0.0,88,0.00,,,0.00,weatherlink.com 1.10,2013-02-04 03:22:00,
2013-02-03 19:37:00,43.9,41.0,30.11,NW,320,0.0,0.0,89,0.00,,,0.00,weatherlink.com 1.10,2013-02-04 03:37:00,
2013-02-03 19:52:00,43.3,41.0,30.11,NW,320,0.0,0.0,90,0.00,,,0.00,weatherlink.com 1.10,2013-02-04 03:52:00,
2013-02-03 20:07:00,42.8,40.0,30.11,NW,320,0.0,0.0,91,0.00,,,0.00,weatherlink.com 1.10,2013-02-04 04:07:00,
2013-02-03 20:22:00,42.1,40.0,30.12,NW,320,0.0,0.0,91,0.00,,,0.00,weatherlink.com 1.10,2013-02-04 04:22:00,
2013-02-03 20:38:00,41.7,40.0,30.12,NW,320,0.0,0.0,92,0.00,,,0.00,weatherlink.com 1.10,2013-02-04 04:38:00,
2013-02-03 20:53:00,41.7,40.0,30.12,NW,321,0.0,0.0,92,0.00,,,0.00,weatherlink.com 1.10,2013-02-04 04:53:00,
2013-02-03 21:08:00,41.3,39.0,30.12,NW,321,0.0,0.0,92,0.00,,,0.00,weatherlink.com 1.10,2013-02-04 05:08:00,
2013-02-03 21:23:00,41.0,39.0,30.12,NW,321,0.0,0.0,93,0.00,,,0.00,weatherlink.com 1.10,2013-02-04 05:23:00,
2013-02-03 21:38:00,40.7,39.0,30.12,NW,321,0.0,0.0,93,0.00,,,0.00,weatherlink.com 1.10,2013-02-04 05:38:00,
2013-02-03 21:53:00,40.5,39.0,30.12,NW,321,0.0,0.0,94,0.00,,,0.00,weatherlink.com 1.10,2013-02-04 05:53:00,
2013-02-03 22:08:00,40.6,39.0,30.12,NW,321,0.0,0.0,94,0.00,,,0.00,weatherlink.com 1.10,2013-02-04 06:08:00,
2013-02-03 22:23:00,40.6,39.0,30.12,NW,321,0.0,0.0,95,0.00,,,0.00,weatherlink.com 1.10,2013-02-04 06:23:00,
2013-02-03 22:38:00,40.4,39.0,30.12,NW,321,0.0,0.0,94,0.00,,,0.00,weatherlink.com 1.10,2013-02-04 06:38:00,
2013-02-03 22:53:00,40.3,39.0,30.12,NW,321,0.0,0.0,95,0.00,,,0.00,weatherlink.com 1.10,2013-02-04 06:53:00,
2013-02-03 23:08:00,40.1,39.0,30.12,NW,321,0.0,0.0,94,0.00,,,0.00,weatherlink.com 1.10,2013-02-04 07:08:00,
2013-02-03 23:23:00,39.9,38.0,30.12,NW,321,0.0,0.0,94,0.00,,,0.00,weatherlink.com 1.10,2013-02-04 07:23:00,
2013-02-03 23:38:00,39.9,39.0,30.12,NW,321,0.0,0.0,95,0.00,,,0.00,weatherlink.com 1.10,2013-02-04 07:38:00,
2013-02-03 23:53:00,39.8,39.0,30.12,NW,321,0.0,0.0,95,0.00,,,0.00,weatherlink.com 1.10,2013-02-04 07:53:00,